createdAt,value
2022-10-12T00:01:07.123Z,22.25
2022-10-12T00:03:55.364Z,23.17
2022-10-12T00:06:37.363Z,22.42
2022-10-12T00:09:24.383Z,22.17
2022-10-12T00:11:57.440Z,22.45
2022-10-12T00:14:44.363Z,22.70
2022-10-12T00:17:17.444Z,22.38
2022-10-12T00:20:04.340Z,21.02
2022-10-12T00:22:45.411Z,22.02
2022-10-12T00:25:39.365Z,22.13
2022-10-12T00:28:27.402Z,22.67
2022-10-12T00:31:00.470Z,21.63
2022-10-12T00:33:48.336Z,21.38
2022-10-12T00:36:25.456Z,21.42
2022-10-12T00:39:14.381Z,20.35
2022-10-12T00:41:57.357Z,22.35
2022-10-12T00:45:00.389Z,22.00
2022-10-12T00:48:02.386Z,22.25
2022-10-12T00:50:51.362Z,20.40
2022-10-12T00:53:31.708Z,21.10
2022-10-12T00:56:25.410Z,21.55
2022-10-12T00:58:59.445Z,20.88
2022-10-12T01:01:46.389Z,20.10
2022-10-12T01:04:21.471Z,21.73
2022-10-12T01:07:13.409Z,23.38
2022-10-12T01:09:55.360Z,22.30
2022-10-12T01:12:45.360Z,23.27
2022-10-12T01:15:19.445Z,21.92
2022-10-12T01:18:17.361Z,22.15
2022-10-12T01:21:22.404Z,21.60
2022-10-12T01:24:37.359Z,21.17
2022-10-12T01:27:42.406Z,21.45
2022-10-12T01:30:22.564Z,20.95
2022-10-12T01:33:24.407Z,19.85
2022-10-12T01:36:19.403Z,20.88
2022-10-12T01:39:17.366Z,20.77
2022-10-12T01:42:02.393Z,20.75
2022-10-12T01:44:56.414Z,19.60
2022-10-12T01:47:46.394Z,20.27
2022-10-12T01:50:22.483Z,20.25
2022-10-12T01:53:27.399Z,19.70
2022-10-12T01:56:06.465Z,19.15
2022-10-12T01:59:15.442Z,20.30
2022-10-12T02:02:02.409Z,20.83
2022-10-12T02:05:13.410Z,19.58
2022-10-12T02:08:13.411Z,19.38
2022-10-12T02:11:31.405Z,19.25
2022-10-12T02:14:23.410Z,21.42
2022-10-12T02:17:07.400Z,20.52
2022-10-12T02:20:04.408Z,20.27
2022-10-12T02:22:49.410Z,20.48
2022-10-12T02:25:44.416Z,18.70
2022-10-12T02:28:40.448Z,17.52
2022-10-12T02:32:00.395Z,19.73
2022-10-12T02:34:54.421Z,18.98
2022-10-12T02:37:37.619Z,21.08
2022-10-12T02:40:45.411Z,20.58
2022-10-12T02:43:27.449Z,20.35
2022-10-12T02:46:16.394Z,18.55
2022-10-12T02:48:53.499Z,17.60
2022-10-12T02:51:42.394Z,19.88
2022-10-12T02:54:15.470Z,20.77
2022-10-12T02:57:02.421Z,20.73
2022-10-12T02:59:35.470Z,21.08
2022-10-12T03:02:22.408Z,19.92
2022-10-12T03:04:55.503Z,19.60
2022-10-12T03:07:42.417Z,18.35
2022-10-12T03:10:15.463Z,19.33
2022-10-12T03:13:02.400Z,18.88
2022-10-12T03:15:35.465Z,19.08
2022-10-12T03:18:22.404Z,18.25
2022-10-12T03:20:55.479Z,17.90
2022-10-12T03:23:49.407Z,18.50
2022-10-12T03:26:36.408Z,19.10
2022-10-12T03:29:09.477Z,19.35
2022-10-12T03:31:56.408Z,19.20
2022-10-12T03:34:29.542Z,17.45
2022-10-12T03:37:16.406Z,19.40
2022-10-12T03:39:49.636Z,19.48
2022-10-12T03:42:36.395Z,17.42
2022-10-12T03:45:09.897Z,19.77
2022-10-12T03:47:58.973Z,20.55
2022-10-12T03:50:35.073Z,18.27
2022-10-12T03:53:21.433Z,18.85
2022-10-12T03:55:57.473Z,19.90
2022-10-12T03:58:44.426Z,19.48
2022-10-12T04:01:17.509Z,18.50
2022-10-12T04:04:04.428Z,17.65
2022-10-12T04:06:37.554Z,19.17
2022-10-12T04:09:24.439Z,18.52
2022-10-12T04:12:12.428Z,18.92
2022-10-12T04:14:59.422Z,18.88
2022-10-12T04:17:39.785Z,17.80
2022-10-12T04:20:33.407Z,20.65
2022-10-12T04:23:27.444Z,22.83
2022-10-12T04:26:15.430Z,22.77
2022-10-12T04:28:51.638Z,19.05
2022-10-12T04:31:38.437Z,17.63
2022-10-12T04:34:18.429Z,18.33
2022-10-12T04:37:12.437Z,17.77
2022-10-12T04:39:59.429Z,17.42
2022-10-12T04:42:35.548Z,16.63
2022-10-12T04:45:22.434Z,17.63
2022-10-12T04:47:56.626Z,18.15
2022-10-12T04:50:43.449Z,16.85
2022-10-12T04:53:16.503Z,16.55
2022-10-12T04:56:03.456Z,16.83
2022-10-12T04:58:43.432Z,18.83
2022-10-12T05:01:30.483Z,18.92
2022-10-12T05:04:03.565Z,16.60
2022-10-12T05:06:50.441Z,18.00
2022-10-12T05:09:30.454Z,15.10
2022-10-12T05:12:24.437Z,15.73
2022-10-12T05:15:11.464Z,17.20
2022-10-12T05:17:44.516Z,16.70
2022-10-12T05:20:31.447Z,17.33
2022-10-12T05:23:05.548Z,16.20
2022-10-12T05:25:52.460Z,15.48
2022-10-12T05:28:25.611Z,17.90
2022-10-12T05:31:12.436Z,18.35
2022-10-12T05:33:52.464Z,16.90
2022-10-12T05:36:46.474Z,16.48
2022-10-12T05:39:40.448Z,16.13
2022-10-12T05:42:27.462Z,15.65
2022-10-12T05:45:00.577Z,17.08
2022-10-12T05:47:47.473Z,17.67
2022-10-12T05:50:27.466Z,16.70
2022-10-12T05:53:21.464Z,17.45
2022-10-12T05:56:15.451Z,17.77
2022-10-12T05:59:02.454Z,16.65
2022-10-12T06:01:35.761Z,17.38
2022-10-12T06:04:23.471Z,16.23
2022-10-12T06:06:56.608Z,17.83
2022-10-12T06:09:46.466Z,16.50
2022-10-12T06:12:19.725Z,17.15
2022-10-12T06:15:06.480Z,18.15
2022-10-12T06:17:46.486Z,18.38
2022-10-12T06:20:33.492Z,18.13
2022-10-12T06:23:06.625Z,22.70
2022-10-12T06:26:01.491Z,23.20
2022-10-12T06:28:48.564Z,19.10
2022-10-12T06:31:21.555Z,20.15
2022-10-12T06:34:08.501Z,19.42
2022-10-12T06:36:41.645Z,18.00
2022-10-12T06:39:28.493Z,17.27
2022-10-12T06:42:01.685Z,20.88
2022-10-12T06:44:48.481Z,18.20
2022-10-12T06:47:21.577Z,18.13
2022-10-12T06:50:08.477Z,18.88
2022-10-12T06:52:43.584Z,18.95
2022-10-12T06:55:30.484Z,17.50
2022-10-12T06:58:03.579Z,17.13
2022-10-12T07:00:50.509Z,20.45
2022-10-12T07:03:30.492Z,18.80
2022-10-12T07:06:20.622Z,18.75
2022-10-12T07:09:00.503Z,20.10
2022-10-12T07:11:50.508Z,18.40
2022-10-12T07:14:30.489Z,18.88
2022-10-12T07:17:24.487Z,20.40
2022-10-12T07:20:19.551Z,18.45
2022-10-12T07:23:13.555Z,17.95
2022-10-12T07:26:08.510Z,20.95
2022-10-12T07:28:56.967Z,19.42
2022-10-12T07:31:37.555Z,17.30
2022-10-12T07:34:31.556Z,17.30
2022-10-12T07:37:25.651Z,21.67
2022-10-12T07:40:19.554Z,17.80
2022-10-12T07:43:15.823Z,14.63
2022-10-12T07:45:56.562Z,16.60
2022-10-12T07:48:49.717Z,13.60
2022-10-12T07:51:30.533Z,14.10
2022-10-12T07:54:29.148Z,13.98
2022-10-12T07:57:16.530Z,13.20
2022-10-12T07:59:49.580Z,14.18
2022-10-12T08:02:36.501Z,14.02
2022-10-12T08:05:09.695Z,13.23
2022-10-12T08:07:59.555Z,13.68
2022-10-12T08:10:32.615Z,13.27
2022-10-12T08:13:22.518Z,13.32
2022-10-12T08:15:56.618Z,13.93
2022-10-12T08:18:43.555Z,14.45
2022-10-12T08:21:18.710Z,12.98
2022-10-12T08:24:15.563Z,12.73
2022-10-12T08:27:09.558Z,13.32
2022-10-12T08:29:56.575Z,14.48
2022-10-12T08:32:36.571Z,13.45
2022-10-12T08:35:30.509Z,13.32
2022-10-12T08:38:25.557Z,12.02
2022-10-12T08:41:33.583Z,14.05
2022-10-12T08:44:27.651Z,12.82
2022-10-12T08:47:41.969Z,13.70
2022-10-12T08:50:24.678Z,14.15
2022-10-12T08:53:18.621Z,13.98
2022-10-12T08:56:00.587Z,15.23
2022-10-12T08:58:47.562Z,16.38
2022-10-12T09:01:58.709Z,15.50
2022-10-12T09:05:00.591Z,12.55
2022-10-12T09:07:44.591Z,12.32
2022-10-12T09:11:08.629Z,15.60
2022-10-12T09:14:11.558Z,11.90
2022-10-12T09:16:49.679Z,14.50
2022-10-12T09:19:44.585Z,16.27
2022-10-12T09:22:32.571Z,15.60
2022-10-12T09:25:28.577Z,14.63
2022-10-12T09:28:52.593Z,12.50
2022-10-12T09:31:54.590Z,12.35
2022-10-12T09:34:30.680Z,15.63
2022-10-12T09:37:32.636Z,14.00
2022-10-12T09:40:06.668Z,13.73
2022-10-12T09:42:53.558Z,14.27
2022-10-12T09:45:35.578Z,13.50
2022-10-12T09:48:29.585Z,14.07
2022-10-12T09:51:08.681Z,13.40
2022-10-12T09:53:57.808Z,11.65
2022-10-12T09:56:33.694Z,12.50
2022-10-12T09:59:38.581Z,13.55
2022-10-12T10:02:14.693Z,13.90
2022-10-12T10:05:01.560Z,14.75
2022-10-12T10:07:40.688Z,16.45
2022-10-12T10:10:31.822Z,13.45
2022-10-12T10:13:06.692Z,13.38
2022-10-12T10:15:56.631Z,15.02
2022-10-12T10:18:39.698Z,14.35
2022-10-12T10:21:41.577Z,14.10
2022-10-12T10:24:31.699Z,14.00
2022-10-12T10:27:36.628Z,13.35
2022-10-12T10:30:33.890Z,15.07
2022-10-12T10:33:26.720Z,13.13
2022-10-12T10:36:30.109Z,13.20
2022-10-12T10:39:27.577Z,12.57
2022-10-12T10:42:01.689Z,15.93
2022-10-12T10:44:57.665Z,15.35
2022-10-12T10:47:37.594Z,14.13
2022-10-12T10:50:51.579Z,15.63
2022-10-12T10:53:37.656Z,14.32
2022-10-12T10:56:34.638Z,12.80
2022-10-12T10:59:27.658Z,13.63
2022-10-12T11:02:06.801Z,14.20
2022-10-12T11:05:22.635Z,14.38
2022-10-12T11:08:09.587Z,13.52
2022-10-12T11:11:09.596Z,13.70
2022-10-12T11:13:46.705Z,13.88
2022-10-12T11:16:48.647Z,13.93
2022-10-12T11:19:43.652Z,13.82
2022-10-12T11:22:46.648Z,14.55
2022-10-12T11:25:49.272Z,13.00
2022-10-12T11:28:46.720Z,13.20
2022-10-12T11:31:44.627Z,13.98
2022-10-12T11:34:26.095Z,13.80
2022-10-12T11:37:21.662Z,12.75
2022-10-12T11:40:05.652Z,15.50
2022-10-12T11:42:55.710Z,16.27
2022-10-12T11:45:40.673Z,13.77
2022-10-12T11:48:35.657Z,14.40
2022-10-12T11:51:17.656Z,15.27
2022-10-12T11:54:16.137Z,15.98
2022-10-12T11:57:02.623Z,12.93
2022-10-12T12:00:04.687Z,13.75
2022-10-12T12:03:34.699Z,16.35
2022-10-12T12:06:41.662Z,13.52
2022-10-12T12:09:50.342Z,13.48
2022-10-12T12:12:44.678Z,13.63
2022-10-12T12:15:31.659Z,13.40
2022-10-12T12:18:18.732Z,13.10
2022-10-12T12:21:11.758Z,15.05
2022-10-12T12:23:49.697Z,12.63
2022-10-12T12:26:37.656Z,11.77
2022-10-12T12:29:22.754Z,13.30
2022-10-12T12:32:09.667Z,12.57
2022-10-12T12:34:42.866Z,12.40
2022-10-12T12:37:35.702Z,14.38
2022-10-12T12:40:19.663Z,13.55
2022-10-12T12:43:41.704Z,13.32
2022-10-12T12:46:25.659Z,13.85
2022-10-12T12:49:39.666Z,12.18
2022-10-12T12:52:43.166Z,13.13
2022-10-12T12:55:21.741Z,15.00
2022-10-12T12:58:26.665Z,14.15
2022-10-12T13:01:51.736Z,13.10
2022-10-12T13:05:24.678Z,12.95
2022-10-12T13:08:33.703Z,13.30
2022-10-12T13:11:09.748Z,15.70
2022-10-12T13:14:27.660Z,14.77
2022-10-12T13:17:32.285Z,14.85
2022-10-12T13:20:39.699Z,13.20
2022-10-12T13:23:30.679Z,13.68
2022-10-12T13:26:15.686Z,13.07
2022-10-12T13:29:03.707Z,13.55
2022-10-12T13:31:51.751Z,14.38
2022-10-12T13:34:44.659Z,13.68
2022-10-12T13:37:20.732Z,14.40
2022-10-12T13:40:07.669Z,13.07
2022-10-12T13:42:41.751Z,12.95
2022-10-12T13:45:28.681Z,12.90
2022-10-12T13:48:10.799Z,14.80
2022-10-12T13:51:02.700Z,12.65
2022-10-12T13:53:45.726Z,14.05
2022-10-12T13:56:36.700Z,12.90
2022-10-12T13:59:12.570Z,13.45
2022-10-12T14:02:08.690Z,14.68
2022-10-12T14:04:48.705Z,13.93
2022-10-12T14:07:54.694Z,14.15
2022-10-12T14:10:50.704Z,15.15
2022-10-12T14:13:40.683Z,14.68
2022-10-12T14:16:13.772Z,13.73
2022-10-12T14:19:00.707Z,14.10
2022-10-12T14:21:37.025Z,15.32
2022-10-12T14:24:32.711Z,16.80
2022-10-12T14:27:37.679Z,15.25
2022-10-12T14:30:28.697Z,16.30
2022-10-12T14:33:15.788Z,16.83
2022-10-12T14:36:37.694Z,15.35
2022-10-12T14:39:20.824Z,14.45
2022-10-12T14:42:10.703Z,15.45
2022-10-12T14:44:56.696Z,13.85
2022-10-12T14:47:53.721Z,13.23
2022-10-12T14:50:40.691Z,16.30
2022-10-12T14:53:17.775Z,15.82
2022-10-12T14:56:04.716Z,14.43
2022-10-12T14:58:38.021Z,13.75
2022-10-12T15:01:24.788Z,15.90
2022-10-12T15:03:57.773Z,14.18
2022-10-12T15:06:49.811Z,14.80
2022-10-12T15:09:30.718Z,15.27
2022-10-12T15:12:23.709Z,14.43
2022-10-12T15:15:05.736Z,14.95
2022-10-12T15:17:59.735Z,14.90
2022-10-12T15:20:55.738Z,14.57
2022-10-12T15:23:49.783Z,16.73
2022-10-12T15:26:43.739Z,18.05
2022-10-12T15:29:30.704Z,15.73
2022-10-12T15:32:10.716Z,17.90
2022-10-12T15:34:58.721Z,20.10
2022-10-12T15:37:32.112Z,17.25
2022-10-12T15:40:18.728Z,16.63
2022-10-12T15:42:51.797Z,16.95
2022-10-12T15:45:41.703Z,18.77
2022-10-12T15:48:15.822Z,15.98
2022-10-12T15:51:02.722Z,15.30
2022-10-12T15:53:35.797Z,15.68
2022-10-12T15:56:23.713Z,15.50
2022-10-12T15:58:56.812Z,17.23
2022-10-12T16:01:44.733Z,16.55
2022-10-12T16:04:20.797Z,16.27
2022-10-12T16:07:08.746Z,15.80
2022-10-12T16:09:41.836Z,15.57
2022-10-12T16:12:28.737Z,17.55
2022-10-12T16:15:01.810Z,17.40
2022-10-12T16:17:48.729Z,16.15
2022-10-12T16:20:29.776Z,16.38
2022-10-12T16:23:28.726Z,16.13
2022-10-12T16:26:25.771Z,16.52
2022-10-12T16:29:15.518Z,18.02
2022-10-12T16:31:48.816Z,18.40
2022-10-12T16:34:36.758Z,17.83
2022-10-12T16:37:16.754Z,19.90
2022-10-12T16:40:03.746Z,18.58
2022-10-12T16:42:36.893Z,17.48
2022-10-12T16:45:23.765Z,18.00
2022-10-12T16:47:56.823Z,19.25
2022-10-12T16:50:46.755Z,20.05
2022-10-12T16:53:19.854Z,18.85
2022-10-12T16:56:06.767Z,19.10
2022-10-12T16:58:39.833Z,20.13
2022-10-12T17:01:26.779Z,19.33
2022-10-12T17:04:08.778Z,19.45
2022-10-12T17:07:02.748Z,21.55
2022-10-12T17:09:56.742Z,21.23
2022-10-12T17:12:43.796Z,20.08
2022-10-12T17:15:16.868Z,23.52
2022-10-12T17:18:04.756Z,22.42
2022-10-12T17:20:37.888Z,21.70
2022-10-12T17:23:24.759Z,20.98
2022-10-12T17:26:05.848Z,21.08
2022-10-12T17:28:52.828Z,20.50
2022-10-12T17:31:26.295Z,21.02
2022-10-12T17:34:13.756Z,24.77
2022-10-12T17:36:46.908Z,24.65
2022-10-12T17:39:36.816Z,26.08
2022-10-12T17:42:18.209Z,25.88
2022-10-12T17:45:11.823Z,26.45
2022-10-12T17:47:58.768Z,23.92
2022-10-12T17:50:31.852Z,24.92
2022-10-12T17:53:18.783Z,26.17
2022-10-12T17:55:54.544Z,20.10
2022-10-12T17:58:44.775Z,21.60
2022-10-12T18:01:21.108Z,21.98
2022-10-12T18:04:09.805Z,21.73
2022-10-12T18:06:42.918Z,22.30
2022-10-12T18:09:29.827Z,21.02
2022-10-12T18:12:02.866Z,21.92
2022-10-12T18:14:49.897Z,19.55
2022-10-12T18:17:22.942Z,19.55
2022-10-12T18:20:10.807Z,20.80
2022-10-12T18:22:43.872Z,22.38
2022-10-12T18:25:37.816Z,20.88
2022-10-12T18:28:31.849Z,20.52
2022-10-12T18:31:24.808Z,21.40
2022-10-12T18:33:58.914Z,18.80
2022-10-12T18:36:47.807Z,19.48
2022-10-12T18:39:27.825Z,21.55
2022-10-12T18:42:21.829Z,22.30
2022-10-12T18:45:15.791Z,22.48
2022-10-12T18:48:02.790Z,19.88
2022-10-12T18:50:42.812Z,19.98
2022-10-12T18:53:36.783Z,20.30
2022-10-12T18:56:24.814Z,25.40
2022-10-12T18:58:57.951Z,23.77
2022-10-12T19:01:44.802Z,21.02
2022-10-12T19:04:25.824Z,20.92
2022-10-12T19:07:12.832Z,23.70
2022-10-12T19:09:52.912Z,22.63
2022-10-12T19:12:46.810Z,23.52
2022-10-12T19:15:35.757Z,21.98
2022-10-12T19:18:09.069Z,22.83
2022-10-12T19:20:55.824Z,19.80
2022-10-12T19:23:28.876Z,21.88
2022-10-12T19:26:22.817Z,22.58
2022-10-12T19:28:58.453Z,26.30
2022-10-12T19:31:48.812Z,22.77
2022-10-12T19:34:24.113Z,23.08
2022-10-12T19:37:10.817Z,24.75
2022-10-12T19:39:53.800Z,20.88
2022-10-12T19:42:47.848Z,24.80
2022-10-12T19:45:34.842Z,22.52
2022-10-12T19:48:07.948Z,23.00
2022-10-12T19:50:54.818Z,21.95
2022-10-12T19:53:28.148Z,23.40
2022-10-12T19:56:17.855Z,26.65
2022-10-12T19:58:52.931Z,24.35
2022-10-12T20:01:44.823Z,23.08
2022-10-12T20:04:17.984Z,23.08
2022-10-12T20:07:04.839Z,22.83
2022-10-12T20:09:37.919Z,21.35
2022-10-12T20:12:24.827Z,22.13
2022-10-12T20:14:57.918Z,21.48
2022-10-12T20:17:45.843Z,21.75
2022-10-12T20:20:25.880Z,23.17
2022-10-12T20:23:19.833Z,23.52
2022-10-12T20:26:13.841Z,20.83
2022-10-12T20:29:01.850Z,20.60
2022-10-12T20:31:35.055Z,23.05
2022-10-12T20:34:21.868Z,20.80
2022-10-12T20:36:54.940Z,22.38
2022-10-12T20:39:41.851Z,23.98
2022-10-12T20:42:19.192Z,22.13
2022-10-12T20:45:07.828Z,21.27
2022-10-12T20:47:40.958Z,22.08
2022-10-12T20:50:27.836Z,22.52
2022-10-12T20:53:00.936Z,19.70
2022-10-12T20:55:47.834Z,19.58
2022-10-12T20:58:24.370Z,21.55
2022-10-12T21:01:16.909Z,21.23
2022-10-12T21:03:49.996Z,20.05
2022-10-12T21:06:36.874Z,21.48
2022-10-12T21:09:11.938Z,21.17
2022-10-12T21:11:58.879Z,21.42
2022-10-12T21:14:31.939Z,22.48
2022-10-12T21:17:18.838Z,22.23
2022-10-12T21:19:53.718Z,20.83
2022-10-12T21:22:33.845Z,20.48
2022-10-12T21:25:20.879Z,19.52
2022-10-12T21:28:07.883Z,19.27
2022-10-12T21:30:47.874Z,19.17
2022-10-12T21:33:41.850Z,20.33
2022-10-12T21:36:30.867Z,21.48
2022-10-12T21:39:04.950Z,21.20
2022-10-12T21:41:51.867Z,20.83
2022-10-12T21:44:24.993Z,18.92
2022-10-12T21:47:15.992Z,19.98
2022-10-12T21:49:50.960Z,22.15
2022-10-12T21:52:37.894Z,21.48
2022-10-12T21:55:10.957Z,21.88
2022-10-12T21:57:57.874Z,21.20
2022-10-12T22:00:31.006Z,22.77
2022-10-12T22:03:17.862Z,21.42
2022-10-12T22:05:51.963Z,23.63
2022-10-12T22:08:31.863Z,23.73
2022-10-12T22:11:15.067Z,24.05
2022-10-12T22:13:55.911Z,22.48
2022-10-12T22:16:36.793Z,21.73
2022-10-12T22:19:21.893Z,22.55
2022-10-12T22:22:01.946Z,23.60
2022-10-12T22:24:41.902Z,21.48
2022-10-12T22:27:28.891Z,21.23
2022-10-12T22:30:15.917Z,20.95
2022-10-12T22:32:49.038Z,21.30
2022-10-12T22:35:35.873Z,20.13
2022-10-12T22:38:09.593Z,19.27
2022-10-12T22:41:07.888Z,19.13
2022-10-12T22:43:40.967Z,20.35
2022-10-12T22:46:29.898Z,20.92
2022-10-12T22:49:04.207Z,18.50
2022-10-12T22:51:51.104Z,18.90
2022-10-12T22:54:23.959Z,20.17
2022-10-12T22:57:10.895Z,18.88
2022-10-12T22:59:43.965Z,17.58
2022-10-12T23:02:30.929Z,19.35
2022-10-12T23:05:03.985Z,19.42
2022-10-12T23:07:50.905Z,19.90
2022-10-12T23:10:24.096Z,20.10
2022-10-12T23:13:10.916Z,17.85
2022-10-12T23:15:44.044Z,18.42
2022-10-12T23:18:30.897Z,19.60
2022-10-12T23:21:19.918Z,19.10
2022-10-12T23:23:53.159Z,18.23
2022-10-12T23:26:40.914Z,19.25
2022-10-12T23:29:34.937Z,18.95
2022-10-12T23:32:22.925Z,17.35
2022-10-12T23:34:56.001Z,17.48
2022-10-12T23:37:44.264Z,19.92
2022-10-12T23:40:18.776Z,19.15
2022-10-12T23:43:05.926Z,17.50
2022-10-12T23:45:38.986Z,19.17
2022-10-12T23:48:25.926Z,19.00
2022-10-12T23:50:59.997Z,19.33
2022-10-12T23:53:48.934Z,19.00
2022-10-12T23:56:28.917Z,18.73
2022-10-12T23:59:15.923Z,18.40
